Time;durP1;ratioP1;P1;durP2;ratioP2;P2;SDS_P1;SDS_P2;PMS_P1;PMS_P2;Temp;Humidity;BMP_temperature;BMP_pressure;BME280_temperature;BME280_humidity;BME280_pressure;Samples;Min_cycle;Max_cycle;Signal;HPM_P1;HPM_P2
2023/11/08 00:00:22;;;;;;;6.40;1.52;;;;;;;7.70;82.68;98332.28;5073352;28;20039;-82
2023/11/08 00:02:48;;;;;;;6.03;1.90;;;;;;;7.56;82.78;98335.28;5044778;28;20069;-81
2023/11/08 00:05:15;;;;;;;3.55;1.75;;;;;;;7.75;82.88;98341.16;5058297;28;20055;-82
2023/11/08 00:07:41;;;;;;;6.22;1.95;;;;;;;7.73;82.19;98353.06;5080127;28;20032;-81
2023/11/08 00:10:12;;;;;;;6.03;1.80;;;;;;;7.69;82.98;98339.44;5077625;28;20024;-82
2023/11/08 00:12:40;;;;;;;3.83;2.03;;;;;;;7.61;82.16;98334.56;5077605;28;20127;-82
2023/11/08 00:15:08;;;;;;;6.32;1.75;;;;;;;7.62;83.07;98340.69;5087110;28;20020;-82
2023/11/08 00:17:35;;;;;;;7.68;2.33;;;;;;;7.69;83.01;98336.00;5070294;28;20063;-82
2023/11/08 00:20:00;;;;;;;3.35;1.63;;;;;;;7.68;82.52;98352.97;5069632;28;20491;-82
2023/11/08 00:22:27;;;;;;;4.50;2.33;;;;;;;7.69;83.46;98350.06;5064007;28;20423;-81
2023/11/08 00:24:53;;;;;;;7.65;2.72;;;;;;;7.49;82.59;98339.16;5071673;28;21096;-81
2023/11/08 00:27:19;;;;;;;3.42;2.10;;;;;;;7.46;83.38;98337.78;5076977;28;20075;-82
2023/11/08 00:29:46;;;;;;;1.92;1.70;;;;;;;7.70;83.04;98345.56;5084090;28;20028;-82
2023/11/08 00:32:12;;;;;;;8.55;2.15;;;;;;;7.64;82.81;98338.56;5078680;28;20090;-82
2023/11/08 00:34:37;;;;;;;3.63;2.25;;;;;;;7.67;83.07;98351.34;5067987;28;20032;-82
2023/11/08 00:37:03;;;;;;;4.38;2.42;;;;;;;7.70;82.42;98340.25;5088158;28;20071;-81
2023/11/08 00:39:28;;;;;;;3.25;2.15;;;;;;;7.61;83.18;98331.91;5080668;28;20065;-82
2023/11/08 00:41:53;;;;;;;4.85;2.15;;;;;;;7.63;83.62;98337.75;5052080;28;20046;-82
2023/11/08 00:44:21;;;;;;;3.45;2.30;;;;;;;7.47;83.23;98339.38;5069804;28;20028;-82
2023/11/08 00:46:46;;;;;;;7.07;2.28;;;;;;;7.62;82.78;98333.53;5074250;28;20036;-82
2023/11/08 00:49:12;;;;;;;4.50;2.35;;;;;;;7.59;83.25;98339.31;5080825;28;20021;-82
2023/11/08 00:51:38;;;;;;;5.93;2.35;;;;;;;7.56;82.96;98329.97;5064415;28;20376;-82
2023/11/08 00:54:04;;;;;;;3.40;1.92;;;;;;;7.66;83.29;98350.56;5054935;28;20092;-82
2023/11/08 00:56:30;;;;;;;13.00;3.35;;;;;;;7.61;83.39;98339.06;5083422;28;20035;-82
2023/11/08 00:58:55;;;;;;;5.38;2.40;;;;;;;7.63;83.50;98327.16;5085279;28;20039;-82
2023/11/08 01:01:22;;;;;;;7.13;2.85;;;;;;;7.63;83.40;98321.03;5067727;28;20034;-82
2023/11/08 01:03:48;;;;;;;5.85;2.35;;;;;;;7.36;84.24;98313.69;5047576;28;20286;-81
2023/11/08 01:06:14;;;;;;;4.70;2.30;;;;;;;7.63;83.04;98335.09;5083980;28;20036;-82
2023/11/08 01:08:40;;;;;;;7.00;2.88;;;;;;;7.61;83.29;98328.44;5085942;28;20036;-81
2023/11/08 01:11:06;;;;;;;8.43;3.00;;;;;;;7.50;84.21;98325.63;5085562;28;20028;-81
2023/11/08 01:13:36;;;;;;;13.32;4.70;;;;;;;7.52;83.54;98320.88;5052841;28;20033;-82
2023/11/08 01:16:02;;;;;;;4.30;2.42;;;;;;;7.62;83.03;98325.56;5073144;28;20028;-82
2023/11/08 01:18:32;;;;;;;7.78;3.13;;;;;;;7.54;84.03;98334.72;5071072;28;20412;-81
2023/11/08 01:20:57;;;;;;;4.40;2.42;;;;;;;7.55;83.45;98325.72;5086322;28;20027;-81
2023/11/08 01:23:23;;;;;;;5.93;2.42;;;;;;;7.58;83.37;98335.84;5051297;28;20487;-81
2023/11/08 01:25:48;;;;;;;8.70;2.97;;;;;;;7.40;83.20;98332.63;5088517;28;20059;-82
2023/11/08 01:28:14;;;;;;;7.53;2.45;;;;;;;7.43;84.00;98329.47;5067836;28;20055;-81
2023/11/08 01:30:39;;;;;;;7.25;3.03;;;;;;;7.53;83.65;98333.09;5083249;28;20039;-81
2023/11/08 01:33:05;;;;;;;8.75;2.45;;;;;;;7.52;83.55;98336.00;5066895;28;20066;-82
2023/11/08 01:35:30;;;;;;;11.10;3.08;;;;;;;7.48;83.76;98326.91;5085885;28;20051;-82
2023/11/08 01:37:56;;;;;;;6.00;2.83;;;;;;;7.56;83.25;98331.81;5054970;28;20100;-82
2023/11/08 01:40:21;;;;;;;4.50;2.33;;;;;;;7.47;83.61;98339.38;5087998;28;20028;-82
2023/11/08 01:42:47;;;;;;;6.07;2.53;;;;;;;7.46;83.68;98336.97;5081988;28;20492;-82
2023/11/08 01:45:12;;;;;;;4.50;2.78;;;;;;;7.50;83.29;98343.41;5066902;28;20025;-82
2023/11/08 01:47:39;;;;;;;7.97;2.72;;;;;;;7.55;83.72;98343.50;5086242;28;20031;-81
2023/11/08 01:50:06;;;;;;;7.10;2.83;;;;;;;7.41;83.84;98344.84;5067124;28;20043;-81
2023/11/08 01:52:32;;;;;;;10.63;2.60;;;;;;;7.53;83.57;98337.63;5084620;28;20061;-81
2023/11/08 01:54:58;;;;;;;7.10;3.20;;;;;;;7.57;83.59;98341.41;5080318;28;20418;-81
2023/11/08 01:57:23;;;;;;;8.45;2.97;;;;;;;7.43;84.46;98345.41;5064255;28;20027;-81
2023/11/08 01:59:51;;;;;;;12.73;2.78;;;;;;;7.58;84.30;98343.00;5048580;28;20400;-81
2023/11/08 02:02:16;;;;;;;7.93;2.92;;;;;;;7.61;84.14;98344.38;5062330;28;20444;-81
2023/11/08 02:04:42;;;;;;;5.18;2.72;;;;;;;7.52;83.65;98336.81;5083857;28;20111;-82
2023/11/08 02:07:07;;;;;;;8.73;2.85;;;;;;;7.57;83.30;98336.91;5074315;28;20058;-82
2023/11/08 02:09:33;;;;;;;3.97;2.55;;;;;;;7.56;83.72;98345.09;5065353;28;20111;-82
2023/11/08 02:12:00;;;;;;;5.68;2.80;;;;;;;7.54;84.32;98345.34;5065942;28;20028;-81
2023/11/08 02:14:27;;;;;;;11.65;3.00;;;;;;;7.54;84.16;98334.72;5079430;28;20032;-81
2023/11/08 02:16:53;;;;;;;5.75;3.33;;;;;;;7.63;83.58;98348.38;5068623;28;20058;-82
2023/11/08 02:19:18;;;;;;;9.23;2.88;;;;;;;7.48;84.31;98346.31;5076109;28;20036;-82
2023/11/08 02:21:44;;;;;;;7.55;2.60;;;;;;;7.60;83.91;98350.75;5079482;28;20079;-81
2023/11/08 02:24:20;;;;;;;6.07;2.65;;;;;;;7.64;83.52;98344.69;5048650;28;20112;-82
2023/11/08 02:26:49;;;;;;;4.30;2.30;;;;;;;7.64;84.27;98341.22;5057821;28;20036;-82
2023/11/08 02:29:19;;;;;;;7.65;3.10;;;;;;;7.57;84.11;98330.78;5073077;28;20059;-81
2023/11/08 02:31:49;;;;;;;3.22;2.08;;;;;;;7.69;83.62;98333.34;5077424;28;20438;-82
2023/11/08 02:34:15;;;;;;;9.98;2.80;;;;;;;7.69;83.44;98342.09;5073558;28;20196;-82
2023/11/08 02:36:41;;;;;;;7.53;2.60;;;;;;;7.65;83.60;98330.34;5075717;28;20092;-81
2023/11/08 02:39:07;;;;;;;10.48;2.63;;;;;;;7.61;83.46;98339.06;5063293;28;20044;-82
2023/11/08 02:41:33;;;;;;;7.97;2.42;;;;;;;7.72;83.65;98354.09;5056852;28;20446;-82
2023/11/08 02:43:58;;;;;;;10.23;2.70;;;;;;;7.71;83.20;98347.19;5080704;28;20024;-82
2023/11/08 02:46:24;;;;;;;9.80;2.47;;;;;;;7.66;83.54;98347.91;5065925;28;20115;-81
2023/11/08 02:48:56;;;;;;;5.93;2.20;;;;;;;7.66;84.04;98336.47;5040674;28;20084;-82
2023/11/08 02:51:21;;;;;;;5.97;2.47;;;;;;;7.64;84.04;98346.53;5077980;28;20033;-82
2023/11/08 02:53:47;;;;;;;7.22;4.32;;;;;;;7.72;84.05;98349.59;5063212;28;20046;-82
2023/11/08 02:56:15;;;;;;;3.80;2.28;;;;;;;7.68;84.61;98345.81;5074630;28;20078;-82
2023/11/08 02:58:41;;;;;;;9.90;2.38;;;;;;;7.62;83.79;98348.63;5075729;28;20035;-81
2023/11/08 03:01:06;;;;;;;3.80;1.83;;;;;;;7.64;83.68;98351.84;5060444;28;20032;-82
2023/11/08 03:03:31;;;;;;;7.90;2.65;;;;;;;7.64;84.05;98354.50;5070455;28;20033;-81
2023/11/08 03:05:57;;;;;;;5.32;2.53;;;;;;;7.69;84.21;98358.03;5073383;28;20059;-82
2023/11/08 03:08:23;;;;;;;9.55;2.38;;;;;;;7.55;84.93;98348.81;5058930;28;20090;-82
2023/11/08 03:10:48;;;;;;;3.78;2.30;;;;;;;7.61;85.17;98357.63;5041399;28;20490;-82
2023/11/08 03:13:14;;;;;;;5.65;2.60;;;;;;;7.61;84.12;98347.00;5075632;28;20555;-81
2023/11/08 03:15:40;;;;;;;11.55;3.08;;;;;;;7.63;83.84;98347.56;5079818;28;20060;-82
2023/11/08 03:18:06;;;;;;;9.52;3.30;;;;;;;7.53;84.48;98353.56;5077988;28;20056;-82
2023/11/08 03:20:32;;;;;;;7.82;2.67;;;;;;;7.46;84.98;98348.41;5079545;28;20055;-82
2023/11/08 03:22:58;;;;;;;8.05;2.83;;;;;;;7.55;85.02;98356.78;5050317;28;20062;-82
2023/11/08 03:25:23;;;;;;;10.88;2.97;;;;;;;7.39;85.38;98349.59;5078448;28;20039;-82
2023/11/08 03:27:49;;;;;;;7.25;2.45;;;;;;;7.47;85.24;98352.66;5082851;28;20044;-81
2023/11/08 03:30:16;;;;;;;7.88;2.92;;;;;;;7.56;84.83;98358.34;5053009;28;20143;-81
2023/11/08 03:32:42;;;;;;;3.17;2.30;;;;;;;7.60;84.34;98351.50;5081574;28;20145;-81
2023/11/08 03:35:08;;;;;;;12.32;4.07;;;;;;;7.63;84.78;98359.00;5073444;28;20547;-82
2023/11/08 03:37:38;;;;;;;6.43;2.83;;;;;;;7.61;84.66;98361.09;5072797;28;20174;-81
2023/11/08 03:40:11;;;;;;;8.40;2.35;;;;;;;7.42;84.98;98351.78;5078261;28;20113;-82
2023/11/08 03:42:40;;;;;;;9.82;3.00;;;;;;;7.31;84.70;98364.06;5078499;28;20037;-81
2023/11/08 03:45:06;;;;;;;6.40;2.50;;;;;;;7.51;85.02;98350.34;5063688;28;20451;-81
2023/11/08 03:47:32;;;;;;;3.20;1.92;;;;;;;7.59;84.15;98365.84;5078915;28;20056;-82
2023/11/08 03:49:58;;;;;;;5.63;1.77;;;;;;;7.50;84.61;98361.97;5072967;28;20036;-82
2023/11/08 03:52:23;;;;;;;5.50;2.42;;;;;;;7.51;84.59;98364.38;5075619;28;20510;-81
2023/11/08 03:54:52;;;;;;;5.07;2.13;;;;;;;7.45;84.52;98361.88;5080527;28;20056;-81
2023/11/08 03:57:19;;;;;;;4.82;2.20;;;;;;;7.45;84.83;98364.53;5072477;28;20036;-82
2023/11/08 03:59:45;;;;;;;7.93;2.28;;;;;;;7.42;84.97;98363.19;5076380;28;20067;-82
2023/11/08 04:02:10;;;;;;;6.38;2.78;;;;;;;7.40;85.52;98367.91;5078098;28;20074;-82
2023/11/08 04:04:36;;;;;;;7.07;2.17;;;;;;;7.52;84.93;98365.19;5063022;28;20029;-82
2023/11/08 04:07:02;;;;;;;2.92;2.28;;;;;;;7.38;85.03;98351.44;5066799;28;20063;-81
2023/11/08 04:09:27;;;;;;;4.82;2.08;;;;;;;7.45;84.94;98373.31;5077811;28;20146;-82
2023/11/08 04:11:52;;;;;;;11.30;2.65;;;;;;;7.59;84.79;98376.47;5077582;28;20460;-81
2023/11/08 04:14:18;;;;;;;5.72;2.97;;;;;;;7.39;85.04;98374.28;5068743;28;20070;-81
2023/11/08 04:16:43;;;;;;;5.30;2.58;;;;;;;7.52;85.36;98384.59;5060320;28;20077;-82
2023/11/08 04:19:09;;;;;;;3.85;2.40;;;;;;;7.44;85.22;98378.88;5074784;28;20484;-82
2023/11/08 04:21:34;;;;;;;7.85;2.72;;;;;;;7.46;85.38;98366.97;5081307;28;20056;-82
2023/11/08 04:24:00;;;;;;;7.00;2.72;;;;;;;7.38;85.60;98367.34;5049297;28;21225;-82
2023/11/08 04:26:25;;;;;;;4.75;2.30;;;;;;;7.46;85.15;98382.09;5066236;28;20506;-81
2023/11/08 04:28:51;;;;;;;9.02;4.25;;;;;;;7.41;85.58;98364.22;5077345;28;20435;-82
2023/11/08 04:31:17;;;;;;;8.38;2.95;;;;;;;7.49;85.87;98379.75;5083520;28;20535;-81
2023/11/08 04:33:43;;;;;;;4.30;2.67;;;;;;;7.53;85.52;98377.44;5076758;28;20085;-81
2023/11/08 04:36:09;;;;;;;3.13;2.00;;;;;;;7.43;85.55;98383.38;5082815;28;20028;-81
2023/11/08 04:38:35;;;;;;;4.95;2.28;;;;;;;7.48;85.49;98385.31;5084181;28;20468;-81
2023/11/08 04:41:01;;;;;;;7.75;2.00;;;;;;;7.46;85.62;98382.09;5082537;28;20391;-81
2023/11/08 04:43:27;;;;;;;4.93;2.35;;;;;;;7.52;85.50;98379.28;5086997;28;20035;-81
2023/11/08 04:45:52;;;;;;;4.35;2.33;;;;;;;7.44;86.14;98387.66;5083914;28;20165;-81
2023/11/08 04:48:18;;;;;;;5.28;2.22;;;;;;;7.49;85.70;98393.03;5068532;28;20067;-81
2023/11/08 04:50:43;;;;;;;4.10;2.38;;;;;;;7.23;87.07;98390.97;5083413;28;20407;-81
2023/11/08 04:53:08;;;;;;;3.72;2.35;;;;;;;7.39;85.96;98395.53;5071511;28;20483;-81
2023/11/08 04:55:34;;;;;;;4.45;2.13;;;;;;;7.21;86.17;98392.25;5076521;28;20065;-80
2023/11/08 04:57:59;;;;;;;5.47;2.05;;;;;;;7.43;85.39;98394.00;5074856;28;20086;-81
2023/11/08 05:00:24;;;;;;;4.43;2.25;;;;;;;7.24;86.28;98392.59;5076047;28;20051;-81
2023/11/08 05:02:50;;;;;;;4.20;1.98;;;;;;;7.43;85.67;98401.97;5080520;28;20070;-81
2023/11/08 05:05:15;;;;;;;8.25;2.08;;;;;;;7.41;85.21;98406.72;5079390;28;20057;-82
2023/11/08 05:07:44;;;;;;;5.13;2.13;;;;;;;7.36;86.13;98403.94;5061925;28;20510;-81
2023/11/08 05:10:10;;;;;;;2.65;2.03;;;;;;;7.24;85.79;98397.09;5080553;28;20118;-81
2023/11/08 05:12:35;;;;;;;2.10;1.67;;;;;;;7.43;86.10;98401.16;5067333;28;20096;-82
2023/11/08 05:15:01;;;;;;;3.42;1.60;;;;;;;7.43;85.66;98411.78;5071083;28;20037;-82
2023/11/08 05:17:27;;;;;;;2.85;2.00;;;;;;;7.48;86.00;98401.25;5071797;28;20067;-82
2023/11/08 05:19:52;;;;;;;2.55;1.80;;;;;;;7.36;86.15;98406.59;5073438;28;20024;-82
2023/11/08 05:22:18;;;;;;;2.63;1.88;;;;;;;7.43;85.73;98401.97;5058408;28;20032;-81
2023/11/08 05:24:43;;;;;;;4.35;1.65;;;;;;;7.50;86.39;98401.81;5059055;28;20030;-81
2023/11/08 05:27:11;;;;;;;2.80;1.88;;;;;;;7.38;85.85;98395.78;5081560;28;20349;-82
2023/11/08 05:29:37;;;;;;;3.08;1.85;;;;;;;7.32;86.26;98400.16;5070737;28;20089;-81
2023/11/08 05:32:02;;;;;;;3.13;2.22;;;;;;;7.27;86.17;98392.09;5070828;28;20032;-81
2023/11/08 05:34:28;;;;;;;5.82;1.92;;;;;;;7.33;86.20;98401.78;5075563;28;20040;-82
2023/11/08 05:36:53;;;;;;;4.72;2.13;;;;;;;7.31;86.47;98413.69;5055200;28;20070;-81
2023/11/08 05:39:22;;;;;;;3.78;2.53;;;;;;;7.26;86.02;98395.00;5078278;28;20032;-82
2023/11/08 05:41:53;;;;;;;5.45;2.00;;;;;;;7.31;86.74;98417.16;5076172;28;20054;-81
2023/11/08 05:44:19;;;;;;;7.40;1.83;;;;;;;7.31;86.67;98421.66;5079138;28;20062;-82
2023/11/08 05:46:45;;;;;;;4.82;2.00;;;;;;;7.33;86.40;98412.41;5078119;28;20044;-82
2023/11/08 05:49:11;;;;;;;6.82;2.80;;;;;;;7.35;86.21;98420.94;5071396;28;20040;-83
2023/11/08 05:51:37;;;;;;;9.82;1.50;;;;;;;7.44;85.80;98416.06;5083631;28;20036;-82
2023/11/08 05:54:03;;;;;;;6.38;1.90;;;;;;;7.28;85.82;98414.16;5088128;28;20028;-83
2023/11/08 05:56:29;;;;;;;2.63;1.60;;;;;;;7.34;86.16;98421.16;5070880;28;20052;-83
2023/11/08 05:58:55;;;;;;;4.22;1.42;;;;;;;7.32;86.58;98413.44;5080092;28;20056;-82
2023/11/08 06:01:20;;;;;;;3.65;1.70;;;;;;;7.35;86.10;98412.97;5089588;28;20110;-82
2023/11/08 06:03:46;;;;;;;3.60;2.10;;;;;;;7.44;85.75;98408.91;5092282;28;20040;-82
2023/11/08 06:06:11;;;;;;;2.17;1.55;;;;;;;7.20;87.01;98403.94;5083354;28;20078;-82
2023/11/08 06:08:37;;;;;;;3.85;1.90;;;;;;;7.22;87.00;98420.41;5081176;28;20031;-83
2023/11/08 06:11:04;;;;;;;1.60;1.50;;;;;;;7.27;86.53;98417.88;5091817;28;20054;-82
2023/11/08 06:13:32;;;;;;;3.13;1.98;;;;;;;7.47;86.68;98418.22;5092060;28;20043;-82
2023/11/08 06:15:58;;;;;;;4.10;2.20;;;;;;;7.21;86.65;98408.19;5091725;28;20028;-82
2023/11/08 06:18:26;;;;;;;2.65;1.52;;;;;;;7.40;85.71;98423.66;5069999;28;20127;-82
2023/11/08 06:20:52;;;;;;;1.60;1.20;;;;;;;7.31;86.26;98419.81;5090426;28;20024;-82
2023/11/08 06:23:17;;;;;;;6.18;1.75;;;;;;;7.38;85.56;98432.94;5089267;28;20549;-82
2023/11/08 06:25:43;;;;;;;3.72;1.60;;;;;;;7.23;85.57;98422.81;5084258;28;20025;-82
2023/11/08 06:28:09;;;;;;;3.65;1.50;;;;;;;7.36;85.30;98437.69;5084540;28;20047;-82
2023/11/08 06:30:34;;;;;;;2.38;1.52;;;;;;;7.30;85.86;98433.31;5085653;28;20481;-81
2023/11/08 06:32:59;;;;;;;5.43;1.73;;;;;;;7.39;85.68;98440.66;5087618;28;20414;-81
2023/11/08 06:35:25;;;;;;;2.15;1.35;;;;;;;7.33;85.97;98438.16;5087954;28;20081;-82
2023/11/08 06:37:50;;;;;;;3.83;1.30;;;;;;;7.36;85.86;98451.75;5075378;28;20505;-81
2023/11/08 06:40:16;;;;;;;2.72;1.55;;;;;;;7.35;86.11;98449.34;5082225;28;20034;-81
2023/11/08 06:42:41;;;;;;;3.80;1.67;;;;;;;7.26;85.86;98445.44;5073653;28;20043;-81
2023/11/08 06:45:07;;;;;;;7.13;1.92;;;;;;;7.22;85.77;98444.31;5071007;28;20039;-81
2023/11/08 06:47:33;;;;;;;3.38;1.85;;;;;;;7.35;85.79;98447.50;5072433;28;20028;-81
2023/11/08 06:49:59;;;;;;;2.60;1.52;;;;;;;7.27;85.22;98450.50;5075914;28;20043;-82
2023/11/08 06:52:27;;;;;;;3.22;1.50;;;;;;;7.17;86.13;98447.66;5084617;28;20020;-81
2023/11/08 06:54:52;;;;;;;5.18;2.05;;;;;;;7.15;86.07;98459.56;5083689;28;20039;-81
2023/11/08 06:57:18;;;;;;;3.17;1.80;;;;;;;7.35;85.83;98452.00;5086736;28;20442;-82
2023/11/08 06:59:44;;;;;;;3.83;1.40;;;;;;;7.19;85.55;98448.22;5079286;28;20086;-81
2023/11/08 07:02:09;;;;;;;1.65;1.50;;;;;;;7.31;85.42;98461.47;5071615;28;20494;-81
2023/11/08 07:04:35;;;;;;;5.53;1.38;;;;;;;7.42;85.96;98469.41;5069100;28;20512;-81
2023/11/08 07:07:04;;;;;;;3.83;1.63;;;;;;;7.24;86.00;98474.88;5067642;28;20028;-81
2023/11/08 07:09:30;;;;;;;2.90;1.73;;;;;;;7.36;86.02;98480.16;5091090;28;20624;-81
2023/11/08 07:11:56;;;;;;;1.60;1.50;;;;;;;7.33;86.42;98486.75;5086366;28;20031;-81
2023/11/08 07:14:22;;;;;;;1.88;1.15;;;;;;;7.38;85.54;98478.84;5084518;28;20479;-81
2023/11/08 07:16:47;;;;;;;5.40;1.70;;;;;;;7.35;85.31;98487.31;5086984;28;20063;-81
2023/11/08 07:19:12;;;;;;;1.88;1.15;;;;;;;7.36;85.79;98485.47;5091807;28;20031;-81
2023/11/08 07:21:39;;;;;;;3.90;1.92;;;;;;;7.46;85.61;98497.09;5085955;28;20020;-81
2023/11/08 07:24:06;;;;;;;4.78;1.40;;;;;;;7.42;85.64;98498.59;5073506;28;20024;-81
2023/11/08 07:26:31;;;;;;;4.20;1.30;;;;;;;7.53;86.31;98492.41;5081758;28;20055;-82
2023/11/08 07:28:58;;;;;;;10.48;2.30;;;;;;;7.54;85.35;98494.03;5092417;28;20086;-81
2023/11/08 07:31:24;;;;;;;1.77;1.33;;;;;;;7.49;85.40;98501.91;5050003;28;21003;-81
2023/11/08 07:33:50;;;;;;;2.28;1.33;;;;;;;7.39;86.14;98495.59;5074543;28;20032;-81
2023/11/08 07:36:15;;;;;;;2.38;1.58;;;;;;;7.43;85.65;98492.25;5059066;28;20966;-81
2023/11/08 07:38:41;;;;;;;1.33;1.23;;;;;;;7.51;85.73;98507.78;5036794;28;20066;-81
2023/11/08 07:41:06;;;;;;;3.80;1.55;;;;;;;7.46;85.84;98512.19;5065170;28;20105;-82
2023/11/08 07:43:32;;;;;;;2.72;2.10;;;;;;;7.51;85.93;98502.47;5067607;28;20664;-81
2023/11/08 07:46:00;;;;;;;3.95;1.52;;;;;;;7.53;86.00;98507.56;5057883;28;20028;-81
2023/11/08 07:48:26;;;;;;;6.10;1.63;;;;;;;7.50;86.35;98508.84;5068137;28;20123;-81
2023/11/08 07:50:52;;;;;;;4.82;2.17;;;;;;;7.52;85.94;98503.28;5082705;28;20779;-81
2023/11/08 07:53:19;;;;;;;8.70;2.25;;;;;;;7.41;87.13;98504.94;5050269;28;20032;-82
2023/11/08 07:55:45;;;;;;;2.80;1.50;;;;;;;7.57;86.73;98521.97;5070888;28;20075;-81
2023/11/08 07:58:10;;;;;;;3.20;1.80;;;;;;;7.58;86.53;98520.91;5060808;28;20166;-81
2023/11/08 08:00:35;;;;;;;2.40;1.73;;;;;;;7.45;86.06;98507.91;5063467;28;20074;-81
2023/11/08 08:03:01;;;;;;;5.05;1.35;;;;;;;7.53;86.14;98513.66;5062977;28;20134;-81
2023/11/08 08:05:26;;;;;;;3.47;1.60;;;;;;;7.50;86.32;98514.16;5066460;28;20082;-81
2023/11/08 08:07:52;;;;;;;2.25;1.67;;;;;;;7.63;86.41;98530.84;5034598;28;20032;-81
2023/11/08 08:10:18;;;;;;;2.70;1.60;;;;;;;7.58;86.05;98519.06;5063789;28;20665;-80
2023/11/08 08:12:44;;;;;;;3.15;1.63;;;;;;;7.67;86.27;98518.69;5064973;28;20036;-81
2023/11/08 08:15:10;;;;;;;4.90;1.70;;;;;;;7.68;85.40;98515.00;5077151;28;20663;-81
2023/11/08 08:17:35;;;;;;;4.35;1.88;;;;;;;7.62;86.29;98515.97;5064396;28;20036;-81
2023/11/08 08:20:04;;;;;;;2.80;1.40;;;;;;;7.70;86.36;98527.00;5067510;28;20036;-81
2023/11/08 08:22:30;;;;;;;3.65;1.88;;;;;;;7.81;85.61;98533.31;5071023;28;20036;-81
2023/11/08 08:24:56;;;;;;;3.85;1.38;;;;;;;7.74;86.22;98536.09;5064774;28;20078;-81
2023/11/08 08:27:21;;;;;;;2.53;1.60;;;;;;;7.69;86.45;98538.66;5046464;28;21013;-81
2023/11/08 08:29:47;;;;;;;4.68;1.77;;;;;;;7.75;85.89;98539.56;5064275;28;20074;-82
2023/11/08 08:32:12;;;;;;;2.63;1.40;;;;;;;7.69;86.71;98543.97;5049069;28;20598;-81
2023/11/08 08:34:38;;;;;;;3.75;1.83;;;;;;;7.74;86.04;98541.41;5062243;28;20039;-81
2023/11/08 08:37:04;;;;;;;6.22;1.88;;;;;;;7.78;86.33;98542.56;5062687;28;20036;-81
2023/11/08 08:39:30;;;;;;;3.60;1.90;;;;;;;7.79;86.06;98527.44;5063698;28;20668;-81
2023/11/08 08:41:56;;;;;;;5.32;1.95;;;;;;;7.73;86.08;98542.47;5047993;28;20032;-81
2023/11/08 08:44:21;;;;;;;3.58;2.10;;;;;;;7.75;86.05;98531.59;5061954;28;20063;-81
2023/11/08 08:46:46;;;;;;;3.58;2.88;;;;;;;7.64;86.49;98538.59;5067156;28;20381;-81
2023/11/08 08:49:12;;;;;;;5.13;1.98;;;;;;;7.70;86.57;98518.22;5064962;28;20078;-81
2023/11/08 08:51:38;;;;;;;5.63;1.95;;;;;;;7.81;85.46;98536.78;5063864;28;20032;-81
2023/11/08 08:54:06;;;;;;;3.38;2.10;;;;;;;7.79;85.79;98533.56;5056964;28;20476;-81
2023/11/08 08:56:33;;;;;;;5.10;2.22;;;;;;;7.70;86.54;98524.34;5064068;28;20058;-81
2023/11/08 08:58:58;;;;;;;3.30;1.73;;;;;;;7.76;86.15;98523.38;5065344;28;20036;-81
2023/11/08 09:01:24;;;;;;;2.03;1.83;;;;;;;7.80;85.83;98535.16;5046471;28;20710;-81
2023/11/08 09:03:49;;;;;;;3.08;1.80;;;;;;;7.83;85.40;98544.50;5039402;28;20127;-81
2023/11/08 09:06:18;;;;;;;9.27;2.03;;;;;;;7.75;86.58;98544.88;5063202;28;20066;-81
2023/11/08 09:08:44;;;;;;;3.75;1.60;;;;;;;7.80;86.18;98547.66;5062167;28;20142;-82
2023/11/08 09:11:10;;;;;;;5.43;2.13;;;;;;;7.76;85.83;98528.69;5076072;28;20059;-81
2023/11/08 09:13:36;;;;;;;5.47;2.05;;;;;;;7.74;85.80;98537.94;5038637;28;20097;-82
2023/11/08 09:16:03;;;;;;;5.90;1.98;;;;;;;7.78;86.09;98544.41;5055666;28;20032;-81
2023/11/08 09:18:28;;;;;;;4.75;1.65;;;;;;;7.84;86.20;98551.44;5065711;28;20036;-81
2023/11/08 09:20:54;;;;;;;4.90;2.00;;;;;;;7.80;86.09;98555.63;5059946;28;20071;-81
2023/11/08 09:23:20;;;;;;;2.50;1.63;;;;;;;7.79;86.19;98544.19;5063351;28;20666;-81
2023/11/08 09:25:46;;;;;;;4.10;1.67;;;;;;;7.77;85.89;98533.00;5039398;28;20025;-81
2023/11/08 09:28:11;;;;;;;8.77;1.60;;;;;;;7.81;85.77;98543.94;5063291;28;20075;-81
2023/11/08 09:30:37;;;;;;;7.60;1.67;;;;;;;7.82;85.89;98538.38;5077859;28;20024;-81
2023/11/08 09:33:02;;;;;;;3.83;2.08;;;;;;;7.82;85.94;98550.88;5059375;28;20029;-81
2023/11/08 09:35:28;;;;;;;5.35;1.80;;;;;;;7.92;85.56;98551.03;5061567;28;20039;-81
2023/11/08 09:37:54;;;;;;;4.40;1.48;;;;;;;7.90;86.06;98535.34;5062830;28;20020;-81
2023/11/08 09:40:20;;;;;;;4.38;1.70;;;;;;;7.93;85.32;98539.38;5053325;28;20044;-81
2023/11/08 09:42:46;;;;;;;6.93;1.60;;;;;;;7.97;85.64;98546.63;5062421;28;20035;-81
2023/11/08 09:45:13;;;;;;;6.57;2.10;;;;;;;7.98;85.39;98536.81;5055855;28;20058;-81
2023/11/08 09:47:38;;;;;;;5.28;2.10;;;;;;;8.03;85.52;98543.03;5049366;28;20131;-82
2023/11/08 09:50:08;;;;;;;6.68;2.00;;;;;;;8.06;85.36;98545.19;5062588;28;21706;-81
2023/11/08 09:52:34;;;;;;;4.10;2.15;;;;;;;8.05;85.11;98532.97;5059297;28;20028;-81
2023/11/08 09:55:00;;;;;;;4.38;2.17;;;;;;;8.16;85.24;98545.38;5056154;28;20118;-81
2023/11/08 09:57:26;;;;;;;4.43;1.85;;;;;;;8.17;84.85;98554.13;5060224;28;20046;-82
2023/11/08 09:59:55;;;;;;;6.82;1.80;;;;;;;8.20;85.07;98556.31;5061959;28;20041;-81
2023/11/08 10:02:21;;;;;;;4.38;1.80;;;;;;;8.15;85.25;98551.72;5062178;28;20028;-81
2023/11/08 10:04:48;;;;;;;5.15;2.35;;;;;;;8.22;84.61;98532.97;5071969;28;20032;-81
2023/11/08 10:07:14;;;;;;;7.20;2.40;;;;;;;8.28;84.77;98540.81;5064913;28;20032;-81
2023/11/08 10:09:40;;;;;;;8.23;2.28;;;;;;;8.42;84.78;98551.13;5081578;28;20044;-81
2023/11/08 10:12:08;;;;;;;6.03;1.77;;;;;;;8.44;84.03;98539.22;5065344;28;20154;-80
2023/11/08 10:14:40;;;;;;;6.30;1.58;;;;;;;8.48;84.39;98544.84;5063752;28;20078;-81
2023/11/08 10:17:06;;;;;;;6.38;1.67;;;;;;;8.46;84.60;98550.41;5065134;28;20067;-81
2023/11/08 10:19:47;;;;;;;3.50;1.85;;;;;;;8.53;84.27;98545.75;5063268;28;20126;-81
2023/11/08 10:22:20;;;;;;;5.93;1.55;;;;;;;8.56;83.30;98537.25;5062592;28;20042;-81
2023/11/08 10:24:56;;;;;;;3.97;1.23;;;;;;;8.61;83.57;98539.19;5064993;28;20041;-81
2023/11/08 10:27:22;;;;;;;3.25;2.03;;;;;;;8.58;83.70;98548.50;5065711;28;20151;-81
2023/11/08 10:29:50;;;;;;;4.57;1.75;;;;;;;8.65;83.04;98546.44;5047347;28;20039;-81
2023/11/08 10:32:23;;;;;;;14.13;1.90;;;;;;;8.79;82.54;98563.69;5064612;28;20124;-81
2023/11/08 10:34:50;;;;;;;11.75;2.00;;;;;;;8.75;82.68;98535.16;5084707;28;20043;-81
2023/11/08 10:37:42;;;;;;;2.13;1.70;;;;;;;8.82;82.35;98544.56;5056739;28;20166;-81
2023/11/08 10:40:12;;;;;;;5.50;1.55;;;;;;;8.84;82.70;98541.69;5060748;28;20703;-81
2023/11/08 10:42:38;;;;;;;8.38;2.60;;;;;;;8.89;82.62;98547.88;5045054;28;20151;-81
2023/11/08 10:45:11;;;;;;;7.75;2.03;;;;;;;8.99;82.47;98544.56;5061747;28;20047;-81
2023/11/08 10:47:37;;;;;;;6.13;1.90;;;;;;;9.03;82.29;98543.00;5062590;28;20162;-81
2023/11/08 10:50:08;;;;;;;6.55;2.00;;;;;;;9.00;81.96;98544.31;5060675;28;20052;-81
2023/11/08 10:52:35;;;;;;;6.95;2.70;;;;;;;9.03;81.66;98551.81;5066443;28;20025;-82
2023/11/08 10:55:04;;;;;;;6.80;2.20;;;;;;;8.96;81.46;98545.84;5062614;28;20042;-81
2023/11/08 10:57:32;;;;;;;5.13;1.83;;;;;;;8.91;81.93;98543.09;5063120;28;20055;-81
2023/11/08 11:00:00;;;;;;;7.68;2.33;;;;;;;8.93;81.52;98541.00;5062655;28;20043;-81
2023/11/08 11:02:40;;;;;;;6.82;1.98;;;;;;;9.02;81.43;98544.06;5062914;28;20027;-81
2023/11/08 11:05:09;;;;;;;2.38;1.50;;;;;;;9.14;81.44;98536.78;5077041;28;20496;-81
2023/11/08 11:07:40;;;;;;;2.83;1.60;;;;;;;9.24;81.27;98547.53;5063312;28;20039;-81
2023/11/08 11:10:10;;;;;;;4.10;1.95;;;;;;;9.21;80.59;98539.25;5063878;28;20061;-81
2023/11/08 11:13:04;;;;;;;2.83;1.45;;;;;;;9.24;79.86;98542.22;5062346;28;20031;-81
2023/11/08 11:15:36;;;;;;;6.32;2.00;;;;;;;9.17;80.47;98546.13;5067184;28;20594;-81
2023/11/08 11:18:04;;;;;;;5.00;1.60;;;;;;;9.17;80.14;98530.97;5063631;28;20035;-81
2023/11/08 11:20:37;;;;;;;4.78;2.53;;;;;;;9.26;80.17;98537.44;5061396;28;20033;-81
2023/11/08 11:23:35;;;;;;;7.40;1.60;;;;;;;9.36;79.71;98540.25;5068091;28;20055;-81
2023/11/08 11:26:01;;;;;;;3.90;1.80;;;;;;;9.35;79.43;98532.53;5062307;28;20089;-81
2023/11/08 11:28:52;;;;;;;2.15;1.58;;;;;;;9.39;79.33;98528.31;5050556;28;20054;-81
2023/11/08 11:31:35;;;;;;;3.90;1.50;;;;;;;9.30;80.04;98532.44;5062217;28;20024;-81
2023/11/08 11:34:26;;;;;;;4.40;1.65;;;;;;;9.38;80.02;98521.34;5063536;28;20063;-81
2023/11/08 11:37:10;;;;;;;6.65;2.15;;;;;;;9.41;79.87;98526.19;5063768;28;20541;-81
2023/11/08 11:39:38;;;;;;;6.95;2.00;;;;;;;9.45;79.34;98525.44;5065452;28;20032;-82